Lionhead Wind

Lionhead weather stationLocated on Lionhead Ridge near West Yellowstone. Use the nearest SNOTEL station for snow depth data: Madison Plateau. The data on this page is also available to view at dataGarrison.com.

Elevation
9420ft
Jump to table bottom
Date Time Temperature
deg F
RH, % Wind Speed Wind Gust Wind Direction Pressure Light
03/04/24 23:00 1.5 91 19 28 W - 258 708.040 0
03/04/24 22:00 2.7 92 18 30 W - 277 707.940 0
03/04/24 21:00 3.5 92 20 39 W - 265 707.740 0
03/04/24 20:00 3.3 92 20 37 W - 281 707.120 0
03/04/24 19:00 4.0 92 25 40 W - 267 706.460 0
03/04/24 18:00 4.6 92 20 29 W - 260 706.300 0
03/04/24 17:00 5.2 92 17 30 W - 286 705.980 0
03/04/24 16:00 6.6 92 11 24 W - 292 705.300 0
03/04/24 15:00 8.9 93 12 24 W - 270 704.720 0
03/04/24 14:00 10.8 94 14 26 SW - 247 704.400 0
03/04/24 13:00 11.9 94 13 25 SW - 234 704.040 0
03/04/24 12:00 12.9 94 11 16 W - 256 704.560 0
03/04/24 11:00 11.6 94 12 17 W - 250 704.680 0
03/04/24 10:00 10.1 93 15 23 SW - 240 704.740 0
03/04/24 09:00 6.0 92 17 25 SW - 239 704.560 0
03/04/24 08:00 4.1 92 14 24 W - 253 704.480 0
03/04/24 07:00 1.7 91 14 20 SW - 237 704.620 0
03/04/24 06:00 1.0 91 13 20 W - 250 704.480 0
03/04/24 05:00 1.5 91 11 17 W - 267 704.320 0
03/04/24 04:00 1.9 92 14 21 W - 251 704.040 0
03/04/24 03:00 2.3 92 12 19 W - 248 703.920 0
03/04/24 02:00 1.9 92 12 17 W - 277 703.900 0
03/04/24 01:00 2.1 92 14 22 W - 263 703.800 0
03/04/24 00:00 2.1 92 12 17 W - 250 703.660 0
03/03/24 23:00 2.1 92 12 19 W - 272 703.680 0
03/03/24 22:00 2.0 92 13 17 W - 268 703.360 0
03/03/24 21:00 2.0 92 15 22 W - 264 703.500 0
03/03/24 20:00 2.5 92 16 25 W - 278 703.140 0
03/03/24 19:00 2.7 92 10 14 W - 271 703.220 0
03/03/24 18:00 3.2 92 12 18 W - 282 702.920 0
03/03/24 17:00 5.8 93 8 20 W - 270 702.400 0
03/03/24 16:00 7.3 93 16 25 W - 274 701.980 0
03/03/24 15:00 10.6 93 10 22 W - 281 701.560 0
03/03/24 14:00 11.0 93 16 25 W - 278 701.000 0
03/03/24 13:00 12.2 94 16 26 W - 256 700.880 0
03/03/24 12:00 15.5 96 14 20 W - 257 700.800 0
03/03/24 11:00 16.5 96 25 61 W - 257 700.580 0
03/03/24 10:00 16.0 95 21 39 W - 277 700.420 0
03/03/24 09:00 11.6 94 24 38 SW - 247 700.500 0
03/03/24 08:00 2.8 92 24 34 SW - 243 700.500 0
03/03/24 07:00 0.2 91 22 41 W - 260 700.020 0
03/03/24 06:00 -0.9 91 26 41 W - 277 700.000 0
03/03/24 05:00 -0.4 91 14 44 W - 288 699.960 0
03/03/24 04:00 0.3 91 8 31 W - 275 700.280 0
03/03/24 03:00 1.5 92 7 19 W - 292 699.760 0
03/03/24 02:00 3.0 92 23 64 W - 288 699.620 0
03/03/24 01:00 3.9 92 35 57 W - 265 699.200 0
03/03/24 00:00 4.6 92 38 49 W - 254 698.600 0
03/02/24 23:00 5.3 93 30 59 W - 257 698.440 0
03/02/24 22:00 5.6 93 29 50 W - 260 698.080 0